CheckWX is a tool to help pilots better visualize weather data.  It is not intended as a substitute for an official pre-flight weather briefing.

20:16:05 UTC

SCTE METAR
El Tepual Airport
Puerto Montt, Chile
Current

16 mins ago

SCTE 132000Z 31003KT 270V010 9999 FEW030 SCT200 07/03 Q1026 NOSIG
Observed
Jul-13 @ 20:00 UTC
Wind
  • 310° at 3 KTS
Visibility
10,000+ meters
Flight Rules
VFR
Cloud Levels
  • Few at 3,000' AGL
  • Scattered at 20,000' AGL
Temperature
C / 45°F
Dewpoint
C / 37°F
Humidity
76%
Altimeter
30.3" Hg
Pressure
1025.92 hPa
Previous

1 hour ago

SCTE 131900Z 00000KT 9999 SCT025 SCT200 07/02 Q1026 NOSIG
Observed
Jul-13 @ 19:00 UTC
Visibility
10,000+ meters
Flight Rules
VFR
Cloud Levels
  • Scattered at 2,500' AGL
  • Scattered at 20,000' AGL
Temperature
C / 45°F
Dewpoint
C / 36°F
Humidity
71%
Altimeter
30.3" Hg
Pressure
1025.92 hPa
Previous

2 hours ago

SCTE 131800Z 05003KT 340V100 9999 SCT015 07/01 Q1026 NOSIG
Observed
Jul-13 @ 18:00 UTC
Wind
  • 050° at 3 KTS
Visibility
10,000+ meters
Flight Rules
VFR
Cloud Levels
  • Scattered at 1,500' AGL
Temperature
C / 45°F
Dewpoint
C / 34°F
Humidity
66%
Altimeter
30.3" Hg
Pressure
1025.92 hPa